Big Coppitt Key, Florida
Current Conditions -  °F | °C
As of 6:53 AM on Sunday 25 Jan 2015 (Local Time) from KNQX Reporting Station
Broken Clouds Broken Clouds  
Wind Chill: 65°   Ceiling: 3900
Heat Index: 65°   Visibility: 10mi
Dew Point: 51°   Wind: 10mph
Humidity: 61%   Direction: 360°N
Pressure: 30.06"   Gusts: NA
Location:  24.6°N, 81.66°W
Report Text: KNQX 251153Z 36009KT 10SM BKN039 18/11 A3006 RMK AO2 SLP179 70003 T01830106 10194 20183 53011 $
Loading
Personal Weather Stations






























Interactive Weather Map New forecast layout! Learn more

10-Day Weather Forecast

Advertisements
Track Severe Weather on mobile